Time;durP1;ratioP1;P1;durP2;ratioP2;P2;SDS_P1;SDS_P2;PMS_P1;PMS_P2;Temp;Humidity;BMP_temperature;BMP_pressure;BME280_temperature;BME280_humidity;BME280_pressure;Samples;Min_cycle;Max_cycle;Signal;HPM_P1;HPM_P2
2021/04/06 04:02:21;;;;;;;5.27;1.77;;;-0.10;99.90;;;;;;5120187;23;20516;-64
2021/04/06 04:04:47;;;;;;;4.97;1.73;;;-0.10;99.90;;;;;;4995685;28;20440;-62
2021/04/06 04:07:14;;;;;;;3.03;1.20;;;-0.10;99.90;;;;;;4995055;28;20453;-62
2021/04/06 04:09:41;;;;;;;2.57;1.20;;;-0.10;99.90;;;;;;4995093;28;20449;-62
2021/04/06 04:12:08;;;;;;;5.20;1.50;;;-0.10;99.90;;;;;;4995139;28;20497;-62
2021/04/06 04:14:34;;;;;;;2.57;1.70;;;0.00;99.90;;;;;;4997301;28;20476;-62
2021/04/06 04:17:00;;;;;;;4.80;1.63;;;0.00;99.90;;;;;;5004094;28;20457;-62
2021/04/06 04:19:27;;;;;;;6.87;1.37;;;0.10;99.90;;;;;;4996021;28;20454;-62
2021/04/06 04:21:54;;;;;;;2.90;1.43;;;-0.10;99.90;;;;;;4993890;28;20477;-62
2021/04/06 04:24:20;;;;;;;1.90;1.30;;;-0.10;99.90;;;;;;4994895;28;20872;-62
2021/04/06 04:26:46;;;;;;;5.03;1.93;;;-0.10;99.90;;;;;;4994430;28;21002;-62
2021/04/06 04:29:12;;;;;;;1.27;1.00;;;0.00;99.90;;;;;;4994582;28;20458;-62
2021/04/06 04:31:38;;;;;;;2.90;1.43;;;0.10;99.90;;;;;;4994332;28;20515;-63
2021/04/06 04:34:05;;;;;;;3.03;1.60;;;0.00;99.90;;;;;;4994198;28;20936;-63
2021/04/06 04:36:32;;;;;;;5.73;2.00;;;0.00;99.90;;;;;;4994284;28;20450;-62
2021/04/06 04:38:58;;;;;;;1.83;1.63;;;0.10;99.90;;;;;;4994992;28;20457;-62
2021/04/06 04:41:25;;;;;;;3.37;1.63;;;0.10;99.90;;;;;;4994273;28;20485;-62
2021/04/06 04:43:51;;;;;;;3.47;1.90;;;0.10;99.90;;;;;;4994054;28;20964;-62
2021/04/06 04:46:17;;;;;;;8.10;2.17;;;0.10;99.90;;;;;;4994733;28;20462;-63
2021/04/06 04:48:43;;;;;;;4.00;1.77;;;-0.10;99.90;;;;;;4994440;28;20819;-63
2021/04/06 04:51:09;;;;;;;5.17;1.33;;;-0.10;99.90;;;;;;4994640;28;20466;-62
2021/04/06 04:53:36;;;;;;;12.90;2.23;;;0.00;99.90;;;;;;4994755;28;20450;-61
2021/04/06 04:56:03;;;;;;;3.63;2.60;;;0.10;99.90;;;;;;4995251;28;20465;-62
2021/04/06 04:58:29;;;;;;;3.90;2.70;;;0.20;99.90;;;;;;4994071;28;20530;-62
2021/04/06 05:00:55;;;;;;;9.27;1.80;;;0.30;99.90;;;;;;4993265;28;20515;-64
2021/04/06 05:03:22;;;;;;;9.60;2.03;;;0.30;99.90;;;;;;4993356;28;20822;-62
2021/04/06 05:05:48;;;;;;;6.43;1.90;;;0.30;99.90;;;;;;4993232;28;20453;-62
2021/04/06 05:08:14;;;;;;;4.37;1.90;;;0.20;99.90;;;;;;4993167;28;20480;-61
2021/04/06 05:10:41;;;;;;;3.60;1.90;;;0.30;99.90;;;;;;4993576;28;20478;-62
2021/04/06 05:13:07;;;;;;;4.80;1.90;;;0.30;99.90;;;;;;4993787;28;20825;-62
2021/04/06 05:15:34;;;;;;;4.87;2.13;;;0.30;99.90;;;;;;4993374;28;20461;-62
2021/04/06 05:18:00;;;;;;;5.03;1.87;;;0.20;99.90;;;;;;4993565;28;20458;-61
2021/04/06 05:20:26;;;;;;;7.40;2.43;;;0.10;99.90;;;;;;4993450;28;20481;-61
2021/04/06 05:22:52;;;;;;;10.17;2.10;;;0.10;99.90;;;;;;4993570;28;20481;-62
2021/04/06 05:25:19;;;;;;;3.80;1.73;;;0.10;99.90;;;;;;4993308;28;20458;-63
2021/04/06 05:27:46;;;;;;;5.80;3.40;;;0.10;99.90;;;;;;4993603;28;20461;-64
2021/04/06 05:30:12;;;;;;;3.17;2.43;;;0.10;99.90;;;;;;4993314;28;20825;-61
2021/04/06 05:32:39;;;;;;;6.50;2.67;;;0.10;99.90;;;;;;4995114;28;20453;-64
2021/04/06 05:35:06;;;;;;;7.77;2.20;;;0.10;99.90;;;;;;5002021;28;20457;-62
2021/04/06 05:37:32;;;;;;;8.60;2.70;;;0.20;99.90;;;;;;5011629;28;20445;-62
2021/04/06 05:39:58;;;;;;;4.70;2.00;;;0.30;99.90;;;;;;4997280;28;20995;-62
2021/04/06 05:42:25;;;;;;;8.00;3.80;;;0.30;99.90;;;;;;4997323;28;20474;-62
2021/04/06 05:44:52;;;;;;;6.63;2.60;;;0.30;99.90;;;;;;4996832;28;20457;-63
2021/04/06 05:47:24;;;;;;;5.33;1.80;;;0.50;99.90;;;;;;4996978;28;20516;-63
2021/04/06 05:49:51;;;;;;;7.43;2.20;;;0.50;99.90;;;;;;4996466;28;20912;-63
2021/04/06 05:52:17;;;;;;;7.40;2.70;;;0.60;99.90;;;;;;4996625;28;20477;-62
2021/04/06 05:54:43;;;;;;;3.87;2.30;;;0.60;99.90;;;;;;4996680;28;20449;-61
2021/04/06 05:57:10;;;;;;;5.87;2.03;;;0.50;99.90;;;;;;4996552;28;20797;-62
2021/04/06 05:59:36;;;;;;;7.47;2.60;;;0.60;99.90;;;;;;4996466;28;20476;-62
2021/04/06 06:02:03;;;;;;;4.93;1.93;;;0.70;99.90;;;;;;4996156;28;20842;-62
2021/04/06 06:04:30;;;;;;;5.50;2.80;;;0.70;99.90;;;;;;4996429;28;20450;-62
2021/04/06 06:06:56;;;;;;;3.43;2.40;;;0.80;99.90;;;;;;4996129;28;20480;-62
2021/04/06 06:09:31;;;;;;;10.90;3.03;;;0.90;99.90;;;;;;4996557;28;20453;-63
2021/04/06 06:11:58;;;;;;;7.50;2.90;;;1.00;99.90;;;;;;4995982;28;20469;-62
2021/04/06 06:14:29;;;;;;;4.10;2.40;;;1.10;99.90;;;;;;4996352;28;20454;-62
2021/04/06 06:16:55;;;;;;;4.90;2.43;;;1.10;99.90;;;;;;4998313;28;20479;-62
2021/04/06 06:19:23;;;;;;;4.10;3.60;;;1.20;99.90;;;;;;4996247;28;20453;-63
2021/04/06 06:21:51;;;;;;;8.13;2.40;;;1.20;99.90;;;;;;4995997;28;20490;-64
2021/04/06 06:24:25;;;;;;;7.30;2.90;;;1.30;99.90;;;;;;4995943;28;20967;-64
2021/04/06 06:26:52;;;;;;;8.77;4.10;;;1.40;99.90;;;;;;4996027;28;20515;-62
2021/04/06 06:29:22;;;;;;;8.70;2.17;;;1.50;99.90;;;;;;4996289;28;20864;-62
2021/04/06 06:31:50;;;;;;;5.80;2.80;;;1.60;99.90;;;;;;4995455;28;21047;-62
2021/04/06 06:34:31;;;;;;;4.53;2.80;;;1.60;99.90;;;;;;4995707;28;20458;-62
2021/04/06 06:37:05;;;;;;;5.70;3.07;;;1.70;99.90;;;;;;4995259;28;20442;-62
2021/04/06 06:39:32;;;;;;;6.50;2.83;;;1.90;99.90;;;;;;4995714;28;20457;-62
2021/04/06 06:41:59;;;;;;;5.60;3.40;;;2.00;99.90;;;;;;4995495;28;20494;-62
2021/04/06 06:44:27;;;;;;;4.80;3.70;;;2.10;99.90;;;;;;4995175;28;20457;-61
2021/04/06 06:47:12;;;;;;;6.20;3.40;;;2.10;99.90;;;;;;4995419;28;20512;-64
2021/04/06 06:49:41;;;;;;;3.47;3.10;;;2.20;99.90;;;;;;4995496;28;20457;-62
2021/04/06 06:52:24;;;;;;;5.53;2.50;;;2.20;99.90;;;;;;4995281;28;20477;-62
2021/04/06 06:54:52;;;;;;;7.73;3.07;;;2.20;99.90;;;;;;4992893;28;20987;-64
2021/04/06 06:57:25;;;;;;;4.10;2.53;;;2.20;99.90;;;;;;4995325;28;20485;-62
2021/04/06 06:59:51;;;;;;;5.70;2.90;;;2.20;99.90;;;;;;4995342;28;20445;-62
2021/04/06 07:02:22;;;;;;;17.07;3.33;;;2.30;99.90;;;;;;4995117;28;20485;-63
2021/04/06 07:04:49;;;;;;;5.70;2.60;;;2.30;99.90;;;;;;4995206;28;20512;-63
2021/04/06 07:07:16;;;;;;;3.90;2.87;;;2.30;99.90;;;;;;4995214;28;20462;-64
2021/04/06 07:09:43;;;;;;;7.23;4.17;;;2.30;99.90;;;;;;4995143;28;20797;-63
2021/04/06 07:12:13;;;;;;;7.70;2.90;;;2.50;99.90;;;;;;4994827;28;20980;-63
2021/04/06 07:14:40;;;;;;;4.53;2.70;;;2.60;99.90;;;;;;4995463;28;20458;-62
2021/04/06 07:17:08;;;;;;;5.90;2.30;;;2.80;99.90;;;;;;4995105;28;20453;-62
2021/04/06 07:19:37;;;;;;;5.97;2.60;;;2.90;99.90;;;;;;4995243;28;20458;-63
2021/04/06 07:22:05;;;;;;;4.43;2.50;;;3.00;99.90;;;;;;4994863;28;21018;-61
2021/04/06 07:24:34;;;;;;;6.00;2.33;;;3.10;99.90;;;;;;4995264;28;20496;-61
2021/04/06 07:27:05;;;;;;;4.90;2.40;;;3.40;99.90;;;;;;4994934;28;20508;-63
2021/04/06 07:29:32;;;;;;;7.43;3.13;;;3.80;99.90;;;;;;4995026;28;20782;-64
2021/04/06 07:31:58;;;;;;;3.60;2.60;;;4.00;99.90;;;;;;4995037;28;20525;-61
2021/04/06 07:34:25;;;;;;;4.10;2.30;;;3.90;99.90;;;;;;4995177;28;21026;-62
2021/04/06 07:36:54;;;;;;;7.67;3.00;;;3.90;99.90;;;;;;4994497;28;20830;-62
2021/04/06 07:39:24;;;;;;;6.63;2.57;;;3.90;99.90;;;;;;4994847;28;20465;-62
2021/04/06 07:41:51;;;;;;;4.77;2.57;;;3.90;99.90;;;;;;4994756;28;20481;-62
2021/04/06 07:44:17;;;;;;;8.43;3.43;;;4.00;99.90;;;;;;4994608;28;20454;-63
2021/04/06 07:46:45;;;;;;;15.17;3.50;;;4.10;99.90;;;;;;4994621;28;20458;-61
2021/04/06 07:49:32;;;;;;;8.70;3.47;;;4.00;99.90;;;;;;4994548;28;20812;-62
2021/04/06 07:52:02;;;;;;;7.03;2.70;;;3.80;99.90;;;;;;4994583;28;20474;-64
2021/04/06 07:54:47;;;;;;;12.57;3.30;;;3.90;99.90;;;;;;4994260;28;20496;-64
2021/04/06 07:57:14;;;;;;;4.00;3.00;;;4.00;99.90;;;;;;4994624;28;20457;-62
2021/04/06 07:59:43;;;;;;;7.50;3.27;;;4.00;99.90;;;;;;4994679;28;20497;-62
2021/04/06 08:02:27;;;;;;;5.17;2.77;;;4.10;99.90;;;;;;4993951;28;20512;-64
2021/04/06 08:04:55;;;;;;;8.33;3.43;;;4.10;99.90;;;;;;4994221;28;20493;-63
2021/04/06 08:07:27;;;;;;;3.80;3.20;;;4.30;99.90;;;;;;4997468;28;20457;-63
2021/04/06 08:09:55;;;;;;;10.70;3.10;;;4.30;99.90;;;;;;5006381;28;20909;-63
2021/04/06 08:12:22;;;;;;;9.00;2.90;;;4.30;99.90;;;;;;4994481;28;20478;-63
2021/04/06 08:14:50;;;;;;;3.10;2.50;;;4.30;99.90;;;;;;4994402;28;20768;-64
2021/04/06 08:17:53;;;;;;;4.17;2.43;;;4.20;99.90;;;;;;4994168;28;20519;-64
2021/04/06 08:20:39;;;;;;;7.33;2.83;;;4.20;99.90;;;;;;4994216;28;20505;-63
2021/04/06 08:23:07;;;;;;;9.20;3.10;;;4.20;99.90;;;;;;4994479;28;20450;-63
2021/04/06 08:25:53;;;;;;;5.77;2.20;;;4.20;99.90;;;;;;4993817;28;20944;-64
2021/04/06 08:28:39;;;;;;;9.63;3.13;;;4.10;99.90;;;;;;4994928;28;20963;-63
2021/04/06 08:31:34;;;;;;;4.77;2.60;;;3.90;99.90;;;;;;4994024;28;20472;-64
2021/04/06 08:34:26;;;;;;;8.07;3.00;;;4.00;99.90;;;;;;4994180;28;20438;-64
2021/04/06 08:37:09;;;;;;;12.60;4.07;;;4.10;99.90;;;;;;4994081;28;20457;-63
2021/04/06 08:39:36;;;;;;;6.70;4.23;;;4.10;99.90;;;;;;4994058;28;20445;-63
2021/04/06 08:42:05;;;;;;;6.00;2.60;;;4.10;99.90;;;;;;4993860;28;20494;-63
2021/04/06 08:44:32;;;;;;;8.77;3.43;;;4.10;99.90;;;;;;4993921;28;20458;-63
2021/04/06 08:46:58;;;;;;;5.77;2.50;;;4.10;99.90;;;;;;4994128;28;20462;-63
2021/04/06 08:49:26;;;;;;;6.50;2.60;;;4.00;99.90;;;;;;4993889;28;20457;-63
2021/04/06 08:51:54;;;;;;;5.53;2.73;;;3.80;99.90;;;;;;4993941;28;20496;-63
2021/04/06 08:54:22;;;;;;;3.77;2.87;;;3.90;99.90;;;;;;4993998;28;20459;-63
2021/04/06 08:56:51;;;;;;;8.37;2.93;;;4.40;99.90;;;;;;4993876;28;20461;-63
2021/04/06 08:59:21;;;;;;;9.20;3.17;;;4.90;99.90;;;;;;4993675;28;20788;-64
2021/04/06 09:01:53;;;;;;;5.43;3.00;;;5.20;99.90;;;;;;4993456;28;20485;-63
2021/04/06 09:04:21;;;;;;;3.90;3.00;;;5.30;99.90;;;;;;4993937;28;20418;-63
2021/04/06 09:06:48;;;;;;;4.40;2.73;;;5.30;99.90;;;;;;4994987;28;20457;-63
2021/04/06 09:09:17;;;;;;;7.17;2.90;;;5.50;99.90;;;;;;4997080;28;20523;-63
2021/04/06 09:11:45;;;;;;;5.30;2.63;;;6.00;99.90;;;;;;4997439;28;20476;-63
2021/04/06 09:14:12;;;;;;;3.13;2.40;;;6.20;99.90;;;;;;4997403;28;20453;-63
2021/04/06 09:16:39;;;;;;;7.10;3.00;;;6.30;99.90;;;;;;4997358;28;20453;-64
2021/04/06 09:19:11;;;;;;;3.67;2.40;;;6.30;99.90;;;;;;4997273;28;20511;-64
2021/04/06 09:21:39;;;;;;;4.33;2.67;;;6.30;99.90;;;;;;4997127;28;20544;-63
2021/04/06 09:24:08;;;;;;;5.17;2.90;;;6.00;99.90;;;;;;4997155;28;20817;-64
2021/04/06 09:26:35;;;;;;;2.97;2.40;;;5.90;99.90;;;;;;4997026;28;20460;-63
2021/04/06 09:29:14;;;;;;;4.20;2.70;;;6.10;99.90;;;;;;4997476;28;20449;-63
2021/04/06 09:31:43;;;;;;;6.20;2.60;;;6.30;99.90;;;;;;4997225;28;20469;-63
2021/04/06 09:34:13;;;;;;;6.30;2.50;;;6.30;99.90;;;;;;4997371;28;20458;-64
2021/04/06 09:36:41;;;;;;;7.00;2.67;;;6.30;99.90;;;;;;4996842;28;20457;-63
2021/04/06 09:39:08;;;;;;;6.57;2.50;;;5.80;99.90;;;;;;4997122;28;20453;-63
2021/04/06 09:41:40;;;;;;;3.07;2.13;;;5.80;99.90;;;;;;4996763;28;20481;-63
2021/04/06 09:44:09;;;;;;;4.10;2.30;;;5.80;99.90;;;;;;4996521;28;20841;-63
2021/04/06 09:46:39;;;;;;;3.67;2.17;;;5.60;99.90;;;;;;4996903;28;20457;-63
2021/04/06 09:49:06;;;;;;;5.67;2.60;;;5.40;99.90;;;;;;4996738;28;20442;-63
2021/04/06 09:51:33;;;;;;;5.23;2.67;;;5.50;99.90;;;;;;4996980;28;20470;-62
2021/04/06 09:54:00;;;;;;;2.87;2.10;;;5.70;99.90;;;;;;4996961;28;20457;-62
2021/04/06 09:56:27;;;;;;;3.43;2.17;;;5.90;99.90;;;;;;4997041;28;20458;-62
2021/04/06 09:58:54;;;;;;;3.47;2.53;;;6.20;99.90;;;;;;4996837;28;20454;-64
2021/04/06 10:01:22;;;;;;;6.17;2.23;;;6.40;99.90;;;;;;4996507;28;20485;-64
2021/04/06 10:03:52;;;;;;;4.67;2.10;;;6.30;99.90;;;;;;4996782;28;20453;-62
2021/04/06 10:06:19;;;;;;;7.00;2.70;;;6.10;99.90;;;;;;4996735;28;20591;-63
2021/04/06 10:08:46;;;;;;;8.70;3.70;;;6.10;99.90;;;;;;4997005;28;20492;-63
2021/04/06 10:11:23;;;;;;;6.73;2.80;;;5.80;99.90;;;;;;4996843;28;20474;-64
2021/04/06 10:13:50;;;;;;;9.60;2.90;;;5.80;99.90;;;;;;4996702;28;20437;-64
2021/04/06 10:16:17;;;;;;;8.23;2.97;;;5.40;99.90;;;;;;4996714;28;20445;-64
2021/04/06 10:18:45;;;;;;;3.40;2.20;;;5.40;99.90;;;;;;4996961;28;20494;-63
2021/04/06 10:21:24;;;;;;;4.33;1.90;;;6.40;99.90;;;;;;4996220;28;20490;-63
2021/04/06 10:23:59;;;;;;;2.97;2.10;;;8.00;99.90;;;;;;4996145;28;20446;-62
2021/04/06 10:26:25;;;;;;;3.30;2.40;;;9.30;99.90;;;;;;4996125;28;20448;-63
2021/04/06 10:29:04;;;;;;;4.60;2.40;;;9.40;96.10;;;;;;4995806;28;20504;-63
2021/04/06 10:31:44;;;;;;;6.37;2.77;;;9.20;97.10;;;;;;4996001;28;20470;-62
2021/04/06 10:34:10;;;;;;;4.90;2.37;;;9.00;97.20;;;;;;4995995;28;20468;-63
2021/04/06 10:36:37;;;;;;;4.53;2.20;;;8.80;96.70;;;;;;4995970;28;20438;-62
2021/04/06 10:39:05;;;;;;;3.80;2.40;;;9.30;97.90;;;;;;4995810;28;20454;-62
2021/04/06 10:41:34;;;;;;;2.70;2.30;;;9.60;96.70;;;;;;4995777;28;20864;-62
2021/04/06 10:44:01;;;;;;;5.40;2.60;;;9.40;94.90;;;;;;4995916;28;20544;-63
2021/04/06 10:46:27;;;;;;;4.63;2.47;;;9.10;93.60;;;;;;4995824;28;20873;-62
2021/04/06 10:49:01;;;;;;;4.17;2.27;;;9.10;94.70;;;;;;4995725;28;20475;-62
2021/04/06 10:51:29;;;;;;;3.60;2.63;;;9.10;94.40;;;;;;4995594;28;20473;-63
2021/04/06 10:53:59;;;;;;;4.63;2.03;;;10.00;95.40;;;;;;4996115;28;20488;-63
2021/04/06 10:56:27;;;;;;;5.90;2.10;;;10.60;91.40;;;;;;4996139;28;20449;-63
2021/04/06 10:58:55;;;;;;;4.70;1.93;;;10.40;89.50;;;;;;5012012;28;20441;-63
2021/04/06 11:01:23;;;;;;;4.80;2.10;;;10.10;87.90;;;;;;5002557;28;20991;-63
2021/04/06 11:03:52;;;;;;;4.47;2.83;;;10.00;86.20;;;;;;4996175;28;20453;-63
2021/04/06 11:06:23;;;;;;;4.33;2.30;;;9.80;87.00;;;;;;4996186;28;20446;-63
2021/04/06 11:08:51;;;;;;;3.23;2.07;;;10.30;88.40;;;;;;4995447;28;20434;-63
2021/04/06 11:11:29;;;;;;;3.27;1.70;;;10.70;92.70;;;;;;4995131;28;20473;-64
2021/04/06 11:13:57;;;;;;;3.60;1.50;;;11.20;88.40;;;;;;4998712;28;20438;-64
2021/04/06 11:16:24;;;;;;;3.67;2.30;;;11.00;81.60;;;;;;5008208;28;20521;-63
2021/04/06 11:19:03;;;;;;;3.60;2.30;;;10.70;82.70;;;;;;4998266;28;20931;-63
2021/04/06 11:21:30;;;;;;;3.73;1.63;;;9.90;83.80;;;;;;4995065;28;20531;-63
2021/04/06 11:23:57;;;;;;;5.20;2.27;;;9.40;83.90;;;;;;4994815;28;20940;-63
2021/04/06 11:26:23;;;;;;;4.17;2.33;;;8.70;89.20;;;;;;4994890;28;20505;-63
2021/04/06 11:28:50;;;;;;;4.03;2.20;;;8.60;91.00;;;;;;4994933;28;20466;-63
2021/04/06 11:31:16;;;;;;;5.63;2.20;;;8.80;91.80;;;;;;4994476;28;21007;-63
2021/04/06 11:33:44;;;;;;;2.53;1.87;;;9.00;91.50;;;;;;4994980;28;20465;-63
2021/04/06 11:36:11;;;;;;;2.30;2.17;;;9.00;87.80;;;;;;4994847;28;20442;-64
2021/04/06 11:38:37;;;;;;;3.90;1.90;;;8.40;88.80;;;;;;4994679;28;20941;-64
2021/04/06 11:41:04;;;;;;;3.13;2.10;;;8.10;89.00;;;;;;4994791;28;20493;-64
2021/04/06 11:43:30;;;;;;;2.67;2.03;;;8.00;92.70;;;;;;4994319;28;20963;-64
2021/04/06 11:45:58;;;;;;;3.20;1.80;;;8.10;92.00;;;;;;4994373;28;20520;-63
2021/04/06 11:48:24;;;;;;;1.70;1.60;;;8.20;90.70;;;;;;4994700;28;20457;-63
2021/04/06 11:50:51;;;;;;;3.97;1.73;;;8.60;91.10;;;;;;4994601;28;20481;-63
2021/04/06 11:53:18;;;;;;;5.43;2.60;;;8.50;89.30;;;;;;4995153;28;20784;-62
2021/04/06 11:55:44;;;;;;;2.77;1.90;;;8.00;90.00;;;;;;4994614;28;20461;-63
2021/04/06 11:58:10;;;;;;;4.00;2.37;;;8.10;92.00;;;;;;4994299;28;20449;-63
2021/04/06 12:00:37;;;;;;;3.07;2.17;;;8.70;93.40;;;;;;4994023;28;20481;-64
2021/04/06 12:03:05;;;;;;;2.10;1.90;;;9.40;91.10;;;;;;4994416;28;20622;-63
2021/04/06 12:05:31;;;;;;;5.50;1.80;;;9.60;85.50;;;;;;4994618;28;20454;-63
2021/04/06 12:07:57;;;;;;;3.60;2.10;;;9.50;84.00;;;;;;4994656;28;20516;-63
2021/04/06 12:10:24;;;;;;;4.10;1.93;;;9.80;86.80;;;;;;4994382;28;20438;-63
2021/04/06 12:12:50;;;;;;;7.03;2.30;;;10.20;86.90;;;;;;4994397;28;20461;-63
2021/04/06 12:15:18;;;;;;;1.63;1.53;;;10.20;81.30;;;;;;4994226;28;20461;-62
2021/04/06 12:17:44;;;;;;;4.87;2.10;;;10.40;81.30;;;;;;4994495;28;20464;-62
2021/04/06 12:20:14;;;;;;;3.27;1.80;;;10.50;81.00;;;;;;4994115;28;20457;-63
2021/04/06 12:22:40;;;;;;;2.37;1.87;;;10.70;84.40;;;;;;4994042;28;20457;-63
2021/04/06 12:25:08;;;;;;;2.50;1.50;;;10.80;82.50;;;;;;4994313;28;20454;-62
2021/04/06 12:27:34;;;;;;;3.47;2.43;;;10.50;75.80;;;;;;4994268;28;20470;-63
2021/04/06 12:30:00;;;;;;;2.60;1.67;;;10.60;81.80;;;;;;4993648;28;20492;-62
2021/04/06 12:32:26;;;;;;;3.67;1.93;;;10.60;78.30;;;;;;4993947;28;20528;-64
2021/04/06 12:34:53;;;;;;;3.07;2.00;;;10.80;80.10;;;;;;4993645;28;20453;-64
2021/04/06 12:37:20;;;;;;;4.70;2.03;;;11.30;85.90;;;;;;4994117;28;20450;-64
2021/04/06 12:39:47;;;;;;;2.93;1.80;;;11.60;80.60;;;;;;4993855;28;20852;-65
2021/04/06 12:42:14;;;;;;;3.10;2.00;;;11.10;70.00;;;;;;4995791;28;20481;-64
2021/04/06 12:44:40;;;;;;;3.90;1.93;;;10.90;72.50;;;;;;4997948;28;20461;-64
2021/04/06 12:47:07;;;;;;;3.53;1.80;;;10.50;74.00;;;;;;4997860;28;20453;-64
2021/04/06 12:49:33;;;;;;;5.57;2.47;;;10.20;73.00;;;;;;4997369;28;20503;-64
2021/04/06 12:52:00;;;;;;;4.37;1.87;;;9.70;73.30;;;;;;4996916;28;21002;-64
2021/04/06 12:54:27;;;;;;;8.10;2.00;;;9.40;76.00;;;;;;4997372;28;20861;-64
2021/04/06 12:56:53;;;;;;;4.63;2.30;;;9.10;75.90;;;;;;4997463;28;20454;-64
2021/04/06 12:59:20;;;;;;;3.27;2.20;;;9.20;75.80;;;;;;4997541;28;20446;-64
2021/04/06 13:01:46;;;;;;;7.00;2.03;;;9.20;76.50;;;;;;4997180;28;20481;-64
2021/04/06 13:04:12;;;;;;;4.07;2.00;;;8.80;78.60;;;;;;4997461;28;20533;-64
2021/04/06 13:06:39;;;;;;;2.80;1.77;;;8.40;77.70;;;;;;4997409;28;20453;-64
2021/04/06 13:09:06;;;;;;;7.23;2.50;;;8.30;80.60;;;;;;4997270;28;20462;-64
2021/04/06 13:11:33;;;;;;;3.63;2.80;;;8.50;81.40;;;;;;4997394;28;20473;-64
2021/04/06 13:14:01;;;;;;;2.80;2.07;;;8.80;85.70;;;;;;4997772;28;20465;-64
2021/04/06 13:16:28;;;;;;;6.13;2.33;;;9.00;78.10;;;;;;4997480;28;20457;-64
2021/04/06 13:18:54;;;;;;;2.93;1.80;;;8.90;80.40;;;;;;4997463;28;20450;-64
2021/04/06 13:21:21;;;;;;;4.00;2.07;;;8.70;78.10;;;;;;4997129;28;20819;-65
2021/04/06 13:23:47;;;;;;;2.70;2.20;;;8.60;81.40;;;;;;4998227;28;20511;-64
2021/04/06 13:26:13;;;;;;;3.77;2.10;;;8.60;82.80;;;;;;4997893;28;20449;-64
2021/04/06 13:28:40;;;;;;;3.40;2.00;;;8.30;80.60;;;;;;4997505;28;20457;-64
2021/04/06 13:31:06;;;;;;;6.50;2.00;;;8.20;79.70;;;;;;4996975;28;20480;-64
2021/04/06 13:33:33;;;;;;;2.33;1.70;;;7.70;87.70;;;;;;4997018;28;20454;-63
2021/04/06 13:35:59;;;;;;;1.53;1.43;;;6.70;97.70;;;;;;4997054;28;20461;-64
2021/04/06 13:38:25;;;;;;;4.67;1.60;;;5.60;99.90;;;;;;4997190;28;20458;-63
2021/04/06 13:40:51;;;;;;;1.80;1.60;;;4.50;99.90;;;;;;4997003;28;20478;-64
2021/04/06 13:43:17;;;;;;;2.07;1.87;;;4.00;99.90;;;;;;4996890;28;20457;-63
2021/04/06 13:45:44;;;;;;;3.10;2.17;;;3.50;99.90;;;;;;4996814;28;20453;-64
2021/04/06 13:48:11;;;;;;;2.50;2.07;;;3.10;99.90;;;;;;4996809;28;20458;-64
2021/04/06 13:50:40;;;;;;;2.50;1.53;;;3.00;99.90;;;;;;4996738;28;20473;-63
2021/04/06 13:53:07;;;;;;;3.30;1.97;;;2.70;99.90;;;;;;4996399;28;20480;-63
2021/04/06 13:55:34;;;;;;;3.57;1.40;;;2.50;99.90;;;;;;4997518;28;20457;-64
2021/04/06 13:58:02;;;;;;;1.80;1.70;;;2.50;99.90;;;;;;4996629;28;20465;-64
2021/04/06 14:00:33;;;;;;;2.30;2.10;;;2.50;99.90;;;;;;4996578;28;20504;-63
2021/04/06 14:03:00;;;;;;;3.23;1.93;;;2.40;99.90;;;;;;4996337;28;20967;-63
2021/04/06 14:05:27;;;;;;;4.30;2.47;;;2.30;99.90;;;;;;4996337;28;20458;-64
2021/04/06 14:07:55;;;;;;;3.30;2.07;;;2.20;99.90;;;;;;4996533;28;20448;-63
2021/04/06 14:10:24;;;;;;;1.70;1.60;;;2.10;99.90;;;;;;4996989;28;20548;-63
2021/04/06 14:12:50;;;;;;;1.60;1.50;;;1.80;99.90;;;;;;4996549;28;20450;-63
2021/04/06 14:15:17;;;;;;;2.50;1.83;;;1.70;99.90;;;;;;4996710;28;20460;-64
2021/04/06 14:17:44;;;;;;;2.00;1.73;;;1.70;99.90;;;;;;4996689;28;20865;-63
2021/04/06 14:20:16;;;;;;;3.17;1.90;;;1.80;99.90;;;;;;4995994;28;20464;-63
2021/04/06 14:22:43;;;;;;;3.03;1.93;;;2.00;99.90;;;;;;4996051;28;20472;-63
2021/04/06 14:25:12;;;;;;;2.60;1.73;;;2.30;99.90;;;;;;5004509;28;20453;-64
2021/04/06 14:27:38;;;;;;;6.90;2.07;;;2.60;99.90;;;;;;5008041;28;20460;-63
2021/04/06 14:30:05;;;;;;;3.83;2.00;;;2.80;99.90;;;;;;4997246;28;20454;-63
2021/04/06 14:32:32;;;;;;;1.90;1.70;;;3.20;99.90;;;;;;4995882;28;20530;-63
2021/04/06 14:34:58;;;;;;;1.93;1.80;;;3.60;99.90;;;;;;4995771;28;20454;-63
2021/04/06 14:37:25;;;;;;;3.10;2.10;;;4.00;99.90;;;;;;4995534;28;20454;-63
2021/04/06 14:39:51;;;;;;;2.63;1.87;;;4.50;99.90;;;;;;4996246;28;20449;-63
2021/04/06 14:42:17;;;;;;;2.00;1.67;;;4.80;99.90;;;;;;4995020;28;20984;-64
2021/04/06 14:44:44;;;;;;;2.10;1.93;;;5.20;99.90;;;;;;4995544;28;20453;-64
2021/04/06 14:47:10;;;;;;;1.93;1.73;;;5.50;99.90;;;;;;4995484;28;20458;-64
2021/04/06 14:49:37;;;;;;;2.27;2.10;;;5.40;99.90;;;;;;4995487;28;20442;-64
2021/04/06 14:52:04;;;;;;;2.47;2.37;;;5.20;99.90;;;;;;4995280;28;20561;-63
2021/04/06 14:54:32;;;;;;;2.70;2.50;;;5.60;99.90;;;;;;4995618;28;20482;-64
2021/04/06 14:56:59;;;;;;;4.80;2.20;;;5.60;99.90;;;;;;4995340;28;20556;-63
2021/04/06 14:59:26;;;;;;;4.93;2.00;;;5.40;99.90;;;;;;4995415;28;20466;-64
2021/04/06 15:01:53;;;;;;;2.60;2.03;;;5.70;99.90;;;;;;4995086;28;20486;-63
2021/04/06 15:04:21;;;;;;;3.17;2.13;;;6.00;99.90;;;;;;4995049;28;20461;-64
2021/04/06 15:06:48;;;;;;;2.10;1.87;;;6.30;99.90;;;;;;4995355;28;20461;-63
2021/04/06 15:09:18;;;;;;;1.60;1.53;;;6.40;99.90;;;;;;4995262;28;20822;-63
2021/04/06 15:11:45;;;;;;;2.73;1.90;;;6.60;99.90;;;;;;5002093;28;20587;-64
2021/04/06 15:14:14;;;;;;;4.60;2.00;;;6.70;99.90;;;;;;5005314;28;20454;-63
2021/04/06 15:16:40;;;;;;;2.50;1.20;;;7.00;99.90;;;;;;5003099;28;20458;-63
2021/04/06 15:19:07;;;;;;;3.33;1.53;;;6.70;99.90;;;;;;4995864;28;20442;-64
2021/04/06 15:21:47;;;;;;;2.30;1.70;;;6.80;99.90;;;;;;4996298;28;20489;-64
2021/04/06 15:24:13;;;;;;;1.50;1.40;;;6.90;99.90;;;;;;4996085;28;20927;-64
2021/04/06 15:26:40;;;;;;;7.60;1.70;;;7.00;99.90;;;;;;4995285;28;20457;-64
2021/04/06 15:29:07;;;;;;;1.97;1.50;;;7.10;99.90;;;;;;4996130;28;20492;-64
2021/04/06 15:31:36;;;;;;;1.67;1.57;;;7.00;99.90;;;;;;4996042;28;20466;-64
2021/04/06 15:34:05;;;;;;;6.13;2.57;;;7.00;99.90;;;;;;4995770;28;20469;-63
2021/04/06 15:36:32;;;;;;;3.00;1.60;;;7.00;99.90;;;;;;4995096;28;20820;-64
2021/04/06 15:38:58;;;;;;;3.90;1.60;;;6.90;99.90;;;;;;4995977;28;20458;-64
2021/04/06 15:41:24;;;;;;;2.97;1.57;;;6.80;99.90;;;;;;4995240;28;20481;-64
2021/04/06 15:43:50;;;;;;;2.00;1.33;;;6.70;99.90;;;;;;4995333;28;20462;-64
2021/04/06 15:46:18;;;;;;;2.63;1.50;;;6.60;99.90;;;;;;4995500;28;20461;-64
2021/04/06 15:48:45;;;;;;;1.80;1.30;;;6.60;99.90;;;;;;4995387;28;20480;-64
2021/04/06 15:51:13;;;;;;;1.70;1.23;;;6.60;99.90;;;;;;4994638;28;20470;-63
2021/04/06 15:53:41;;;;;;;4.53;1.80;;;6.80;99.90;;;;;;4994735;28;20872;-64
2021/04/06 15:56:09;;;;;;;4.87;1.50;;;6.90;99.90;;;;;;4994651;28;20464;-63
2021/04/06 15:58:35;;;;;;;2.10;1.53;;;6.80;99.90;;;;;;4994502;28;20458;-64
2021/04/06 16:01:02;;;;;;;1.27;1.23;;;6.80;99.90;;;;;;4994008;28;20561;-64
2021/04/06 16:03:30;;;;;;;6.13;1.30;;;6.60;98.30;;;;;;4994519;28;20569;-63
2021/04/06 16:05:58;;;;;;;1.50;1.50;;;6.50;99.90;;;;;;4994273;28;20531;-64
2021/04/06 16:08:24;;;;;;;1.33;1.23;;;6.50;99.90;;;;;;4994375;28;20457;-63
2021/04/06 16:10:51;;;;;;;2.87;1.50;;;6.50;99.90;;;;;;4994296;28;20484;-63
2021/04/06 16:13:17;;;;;;;2.30;1.40;;;6.40;99.90;;;;;;4994353;28;21007;-63
2021/04/06 16:15:44;;;;;;;1.60;1.50;;;6.50;99.90;;;;;;4993793;28;20453;-63
2021/04/06 16:18:10;;;;;;;2.87;1.20;;;6.60;99.90;;;;;;4994480;28;20862;-64
2021/04/06 16:20:37;;;;;;;1.67;1.37;;;6.60;99.90;;;;;;4993790;28;20458;-62
2021/04/06 16:23:05;;;;;;;2.07;1.43;;;6.70;99.90;;;;;;4994488;28;20449;-63
2021/04/06 16:25:32;;;;;;;2.20;1.10;;;6.70;99.10;;;;;;4994471;28;20461;-64
2021/04/06 16:27:58;;;;;;;1.40;1.30;;;6.60;97.90;;;;;;4995323;28;20443;-63
2021/04/06 16:30:34;;;;;;;2.40;1.50;;;6.40;95.30;;;;;;4994133;28;20456;-63
2021/04/06 16:33:00;;;;;;;3.23;1.53;;;6.20;95.70;;;;;;4993900;28;20814;-63
2021/04/06 16:35:27;;;;;;;2.07;1.50;;;6.00;94.70;;;;;;4994196;28;20523;-63
2021/04/06 16:37:55;;;;;;;20.63;8.57;;;5.90;95.70;;;;;;4993630;28;20979;-63
2021/04/06 16:40:22;;;;;;;169.20;55.30;;;5.80;96.70;;;;;;4993920;28;20458;-63
2021/04/06 16:42:49;;;;;;;194.23;78.63;;;5.70;96.50;;;;;;4994190;28;20478;-64
2021/04/06 16:45:16;;;;;;;51.27;23.97;;;5.70;96.50;;;;;;4994068;28;20442;-63
2021/04/06 16:47:42;;;;;;;5.63;3.23;;;5.70;96.20;;;;;;4994183;28;20511;-63
2021/04/06 16:50:09;;;;;;;5.03;2.07;;;5.60;96.80;;;;;;4994016;28;20461;-63
2021/04/06 16:52:35;;;;;;;3.90;1.87;;;5.50;96.40;;;;;;4993908;28;20473;-62
2021/04/06 16:55:04;;;;;;;1.90;1.40;;;5.50;97.40;;;;;;4993885;28;20457;-66
2021/04/06 16:57:30;;;;;;;1.83;1.33;;;5.60;98.30;;;;;;4994951;28;20461;-63
2021/04/06 16:59:56;;;;;;;4.00;1.43;;;5.50;96.10;;;;;;4994372;28;20817;-63
2021/04/06 17:02:23;;;;;;;1.67;1.57;;;5.50;96.00;;;;;;4993781;28;21022;-63